logo
Search for airport 
image banner adimage banner adimage banner ad
image banner ad

LSHA - Kantonsspital Aarau

Located in , Switzerland

ICAO - , IATA -

Data provided by Airmate  

General information

Coordinates: N47°23'18" E8°3'32"
Elevation is 1354 feet MSL.
 
View others Airports in Aargau

Operational data

Special qualification required
Current time UTC:
Current local time:
Weather at : LSZH - Zurich ( 38 km )
METAR: LSZH 140120Z AUTO 14003KT CAVOK 12/08 Q1025 NOSIG
TAF: TAF LSZH 132325Z 1400/1506 VRB02KT CAVOK TX26/1415Z TN08/1404Z TN12/1504Z TEMPO 1412/1416 29008KT BECMG 1419/1421 9999 SCT070 TEMPO 1502/1506 25010KT SHRA FEW050TCU
View NOTAMs / SUP AIP / TFR affecting this airport [VIEW]
Communications frequencies: [VIEW]

Runways:

Airport contact information

Address: Switzerland

Satellite view of LSHA